sensor_id;sensor_type;location;lat;lon;timestamp;temperature;humidity
31129;DHT22;17777;48.770;8.944;2023-07-20T00:01:26;26.70;32.40
31129;DHT22;17777;48.770;8.944;2023-07-20T00:03:52;26.60;32.40
31129;DHT22;17777;48.770;8.944;2023-07-20T00:06:21;26.60;32.40
31129;DHT22;17777;48.770;8.944;2023-07-20T00:08:48;26.60;32.40
31129;DHT22;17777;48.770;8.944;2023-07-20T00:11:14;26.60;32.40
31129;DHT22;17777;48.770;8.944;2023-07-20T00:13:40;26.60;32.40
31129;DHT22;17777;48.770;8.944;2023-07-20T00:16:06;26.60;32.50
31129;DHT22;17777;48.770;8.944;2023-07-20T00:18:32;26.50;32.50
31129;DHT22;17777;48.770;8.944;2023-07-20T00:20:58;26.50;32.50
31129;DHT22;17777;48.770;8.944;2023-07-20T00:23:25;26.50;32.60
31129;DHT22;17777;48.770;8.944;2023-07-20T00:25:51;26.50;32.60
31129;DHT22;17777;48.770;8.944;2023-07-20T00:28:17;26.40;32.50
31129;DHT22;17777;48.770;8.944;2023-07-20T00:30:43;26.40;32.50
31129;DHT22;17777;48.770;8.944;2023-07-20T00:33:16;26.40;32.50
31129;DHT22;17777;48.770;8.944;2023-07-20T00:35:42;26.30;32.50
31129;DHT22;17777;48.770;8.944;2023-07-20T00:38:08;26.30;32.50
31129;DHT22;17777;48.770;8.944;2023-07-20T00:40:40;26.30;32.50
31129;DHT22;17777;48.770;8.944;2023-07-20T00:43:07;26.30;32.60
31129;DHT22;17777;48.770;8.944;2023-07-20T00:45:34;26.20;32.60
31129;DHT22;17777;48.770;8.944;2023-07-20T00:48:02;26.20;32.60
31129;DHT22;17777;48.770;8.944;2023-07-20T00:50:31;26.20;32.70
31129;DHT22;17777;48.770;8.944;2023-07-20T00:52:58;26.20;32.70
31129;DHT22;17777;48.770;8.944;2023-07-20T00:55:24;26.10;32.70
31129;DHT22;17777;48.770;8.944;2023-07-20T00:57:52;26.10;32.80
31129;DHT22;17777;48.770;8.944;2023-07-20T01:00:18;26.10;32.80
31129;DHT22;17777;48.770;8.944;2023-07-20T01:02:45;26.00;32.80
31129;DHT22;17777;48.770;8.944;2023-07-20T01:05:13;26.00;32.90
31129;DHT22;17777;48.770;8.944;2023-07-20T01:08:00;26.00;33.00
31129;DHT22;17777;48.770;8.944;2023-07-20T01:10:42;26.00;33.10
31129;DHT22;17777;48.770;8.944;2023-07-20T01:13:14;26.00;33.10
31129;DHT22;17777;48.770;8.944;2023-07-20T01:15:41;25.90;33.10
31129;DHT22;17777;48.770;8.944;2023-07-20T01:18:07;25.90;33.10
31129;DHT22;17777;48.770;8.944;2023-07-20T01:20:33;25.90;33.20
31129;DHT22;17777;48.770;8.944;2023-07-20T01:23:20;25.90;33.20
31129;DHT22;17777;48.770;8.944;2023-07-20T01:31:50;25.80;33.50
31129;DHT22;17777;48.770;8.944;2023-07-20T01:34:18;25.80;33.40
31129;DHT22;17777;48.770;8.944;2023-07-20T01:36:46;25.70;33.40
31129;DHT22;17777;48.770;8.944;2023-07-20T01:39:13;25.70;33.60
31129;DHT22;17777;48.770;8.944;2023-07-20T01:41:40;25.70;33.60
31129;DHT22;17777;48.770;8.944;2023-07-20T01:44:05;25.60;33.60
31129;DHT22;17777;48.770;8.944;2023-07-20T01:46:31;25.60;33.70
31129;DHT22;17777;48.770;8.944;2023-07-20T01:48:57;25.60;33.70
31129;DHT22;17777;48.770;8.944;2023-07-20T01:51:23;25.50;33.70
31129;DHT22;17777;48.770;8.944;2023-07-20T01:53:49;25.50;33.80
31129;DHT22;17777;48.770;8.944;2023-07-20T01:56:15;25.40;33.80
31129;DHT22;17777;48.770;8.944;2023-07-20T01:58:41;25.40;33.90
31129;DHT22;17777;48.770;8.944;2023-07-20T02:01:07;25.40;33.90
31129;DHT22;17777;48.770;8.944;2023-07-20T02:03:32;25.40;34.70
31129;DHT22;17777;48.770;8.944;2023-07-20T02:05:58;25.30;34.00
31129;DHT22;17777;48.770;8.944;2023-07-20T02:08:25;25.30;34.10
31129;DHT22;17777;48.770;8.944;2023-07-20T02:10:51;25.30;34.20
31129;DHT22;17777;48.770;8.944;2023-07-20T02:13:17;25.20;34.20
31129;DHT22;17777;48.770;8.944;2023-07-20T02:15:43;25.20;34.20
31129;DHT22;17777;48.770;8.944;2023-07-20T02:18:10;25.20;34.30
31129;DHT22;17777;48.770;8.944;2023-07-20T02:20:36;25.10;34.30
31129;DHT22;17777;48.770;8.944;2023-07-20T02:23:02;25.10;34.30
31129;DHT22;17777;48.770;8.944;2023-07-20T02:25:27;25.00;34.50
31129;DHT22;17777;48.770;8.944;2023-07-20T02:27:53;25.00;34.60
31129;DHT22;17777;48.770;8.944;2023-07-20T02:30:19;24.90;34.80
31129;DHT22;17777;48.770;8.944;2023-07-20T02:32:45;24.90;34.80
31129;DHT22;17777;48.770;8.944;2023-07-20T02:35:14;24.90;34.90
31129;DHT22;17777;48.770;8.944;2023-07-20T02:37:40;24.80;34.90
31129;DHT22;17777;48.770;8.944;2023-07-20T02:40:07;24.80;35.00
31129;DHT22;17777;48.770;8.944;2023-07-20T02:42:33;24.70;35.00
31129;DHT22;17777;48.770;8.944;2023-07-20T02:44:59;24.60;35.00
31129;DHT22;17777;48.770;8.944;2023-07-20T02:47:24;24.60;35.20
31129;DHT22;17777;48.770;8.944;2023-07-20T02:49:50;24.50;35.20
31129;DHT22;17777;48.770;8.944;2023-07-20T02:52:16;24.40;35.30
31129;DHT22;17777;48.770;8.944;2023-07-20T02:54:42;24.40;35.40
31129;DHT22;17777;48.770;8.944;2023-07-20T02:57:08;24.30;35.40
31129;DHT22;17777;48.770;8.944;2023-07-20T02:59:33;24.20;35.50
31129;DHT22;17777;48.770;8.944;2023-07-20T03:02:00;24.20;35.70
31129;DHT22;17777;48.770;8.944;2023-07-20T03:04:26;24.10;35.80
31129;DHT22;17777;48.770;8.944;2023-07-20T03:06:52;24.00;35.90
31129;DHT22;17777;48.770;8.944;2023-07-20T03:09:19;23.90;36.00
31129;DHT22;17777;48.770;8.944;2023-07-20T03:11:45;23.80;36.10
31129;DHT22;17777;48.770;8.944;2023-07-20T03:14:11;23.70;36.30
31129;DHT22;17777;48.770;8.944;2023-07-20T03:16:39;23.70;36.40
31129;DHT22;17777;48.770;8.944;2023-07-20T03:19:04;23.70;36.50
31129;DHT22;17777;48.770;8.944;2023-07-20T03:21:30;23.60;36.50
31129;DHT22;17777;48.770;8.944;2023-07-20T03:23:59;23.60;36.60
31129;DHT22;17777;48.770;8.944;2023-07-20T03:26:24;23.50;36.70
31129;DHT22;17777;48.770;8.944;2023-07-20T03:28:50;23.50;37.40
31129;DHT22;17777;48.770;8.944;2023-07-20T03:31:16;23.40;36.90
31129;DHT22;17777;48.770;8.944;2023-07-20T03:33:42;23.40;37.00
31129;DHT22;17777;48.770;8.944;2023-07-20T03:36:08;23.40;37.00
31129;DHT22;17777;48.770;8.944;2023-07-20T03:38:35;23.40;37.20
31129;DHT22;17777;48.770;8.944;2023-07-20T03:41:01;23.30;37.20
31129;DHT22;17777;48.770;8.944;2023-07-20T03:43:28;23.20;37.80
31129;DHT22;17777;48.770;8.944;2023-07-20T03:45:54;23.20;37.30
31129;DHT22;17777;48.770;8.944;2023-07-20T03:48:22;23.10;37.40
31129;DHT22;17777;48.770;8.944;2023-07-20T03:50:52;23.10;37.60
31129;DHT22;17777;48.770;8.944;2023-07-20T03:53:19;23.10;37.90
31129;DHT22;17777;48.770;8.944;2023-07-20T03:55:46;23.00;37.90
31129;DHT22;17777;48.770;8.944;2023-07-20T03:58:13;23.00;38.70
31129;DHT22;17777;48.770;8.944;2023-07-20T04:00:39;23.00;38.80
31129;DHT22;17777;48.770;8.944;2023-07-20T04:03:06;23.00;38.20
31129;DHT22;17777;48.770;8.944;2023-07-20T04:05:32;23.00;38.30
31129;DHT22;17777;48.770;8.944;2023-07-20T04:07:58;23.00;38.30
31129;DHT22;17777;48.770;8.944;2023-07-20T04:10:24;23.00;38.40
31129;DHT22;17777;48.770;8.944;2023-07-20T04:12:51;23.00;38.50
31129;DHT22;17777;48.770;8.944;2023-07-20T04:15:17;23.00;38.40
31129;DHT22;17777;48.770;8.944;2023-07-20T04:17:44;23.00;38.40
31129;DHT22;17777;48.770;8.944;2023-07-20T04:20:10;23.00;38.50
31129;DHT22;17777;48.770;8.944;2023-07-20T04:22:36;23.00;38.50
31129;DHT22;17777;48.770;8.944;2023-07-20T04:25:04;23.00;38.50
31129;DHT22;17777;48.770;8.944;2023-07-20T04:27:30;23.00;38.60
31129;DHT22;17777;48.770;8.944;2023-07-20T04:29:58;23.00;38.70
31129;DHT22;17777;48.770;8.944;2023-07-20T04:32:28;23.00;38.90
31129;DHT22;17777;48.770;8.944;2023-07-20T04:34:54;23.00;38.80
31129;DHT22;17777;48.770;8.944;2023-07-20T04:37:20;23.00;39.00
31129;DHT22;17777;48.770;8.944;2023-07-20T04:39:47;23.00;39.20
31129;DHT22;17777;48.770;8.944;2023-07-20T04:42:13;23.00;40.00
31129;DHT22;17777;48.770;8.944;2023-07-20T04:44:40;23.00;39.40
31129;DHT22;17777;48.770;8.944;2023-07-20T04:47:07;23.00;39.60
31129;DHT22;17777;48.770;8.944;2023-07-20T04:49:36;23.00;39.60
31129;DHT22;17777;48.770;8.944;2023-07-20T04:52:02;23.00;39.50
31129;DHT22;17777;48.770;8.944;2023-07-20T04:54:28;23.00;39.70
31129;DHT22;17777;48.770;8.944;2023-07-20T04:56:54;23.10;39.90
31129;DHT22;17777;48.770;8.944;2023-07-20T04:59:21;23.10;39.90
31129;DHT22;17777;48.770;8.944;2023-07-20T05:01:47;23.10;39.90
31129;DHT22;17777;48.770;8.944;2023-07-20T05:04:14;23.10;40.00
31129;DHT22;17777;48.770;8.944;2023-07-20T05:06:40;23.10;40.00
31129;DHT22;17777;48.770;8.944;2023-07-20T05:09:06;23.10;40.10
31129;DHT22;17777;48.770;8.944;2023-07-20T05:11:33;23.10;40.10
31129;DHT22;17777;48.770;8.944;2023-07-20T05:14:00;23.10;40.10
31129;DHT22;17777;48.770;8.944;2023-07-20T05:16:26;23.10;40.30
31129;DHT22;17777;48.770;8.944;2023-07-20T05:18:53;23.10;40.30
31129;DHT22;17777;48.770;8.944;2023-07-20T05:21:19;23.10;40.40
31129;DHT22;17777;48.770;8.944;2023-07-20T05:23:45;23.10;40.40
31129;DHT22;17777;48.770;8.944;2023-07-20T05:26:13;23.10;40.50
31129;DHT22;17777;48.770;8.944;2023-07-20T05:28:39;23.10;40.50
31129;DHT22;17777;48.770;8.944;2023-07-20T05:31:06;23.10;40.60
31129;DHT22;17777;48.770;8.944;2023-07-20T05:33:32;23.20;40.80
31129;DHT22;17777;48.770;8.944;2023-07-20T05:35:57;23.20;40.80
31129;DHT22;17777;48.770;8.944;2023-07-20T05:38:23;23.30;40.80
31129;DHT22;17777;48.770;8.944;2023-07-20T05:40:49;23.30;40.70
31129;DHT22;17777;48.770;8.944;2023-07-20T05:43:15;23.30;40.70
31129;DHT22;17777;48.770;8.944;2023-07-20T05:45:44;23.40;40.70
31129;DHT22;17777;48.770;8.944;2023-07-20T05:48:10;23.40;41.00
31129;DHT22;17777;48.770;8.944;2023-07-20T05:50:38;23.40;40.80
31129;DHT22;17777;48.770;8.944;2023-07-20T05:53:07;23.50;40.80
31129;DHT22;17777;48.770;8.944;2023-07-20T05:55:32;23.50;40.80
31129;DHT22;17777;48.770;8.944;2023-07-20T05:57:58;23.50;40.70
31129;DHT22;17777;48.770;8.944;2023-07-20T06:00:24;23.60;40.70
31129;DHT22;17777;48.770;8.944;2023-07-20T06:02:54;23.60;40.60
31129;DHT22;17777;48.770;8.944;2023-07-20T06:05:21;23.70;40.70
31129;DHT22;17777;48.770;8.944;2023-07-20T06:07:49;23.70;40.50
31129;DHT22;17777;48.770;8.944;2023-07-20T06:10:15;23.80;40.40
31129;DHT22;17777;48.770;8.944;2023-07-20T06:12:41;23.80;40.40
31129;DHT22;17777;48.770;8.944;2023-07-20T06:15:27;23.90;40.50
31129;DHT22;17777;48.770;8.944;2023-07-20T06:17:55;23.90;40.90
31129;DHT22;17777;48.770;8.944;2023-07-20T06:20:22;24.00;40.50
31129;DHT22;17777;48.770;8.944;2023-07-20T06:22:48;24.00;40.50
31129;DHT22;17777;48.770;8.944;2023-07-20T06:25:14;24.10;40.60
31129;DHT22;17777;48.770;8.944;2023-07-20T06:27:39;24.10;40.70
31129;DHT22;17777;48.770;8.944;2023-07-20T06:30:06;24.20;40.70
31129;DHT22;17777;48.770;8.944;2023-07-20T06:32:32;24.20;40.70
31129;DHT22;17777;48.770;8.944;2023-07-20T06:34:57;24.30;40.60
31129;DHT22;17777;48.770;8.944;2023-07-20T06:37:23;24.40;40.60
31129;DHT22;17777;48.770;8.944;2023-07-20T06:39:49;24.40;40.50
31129;DHT22;17777;48.770;8.944;2023-07-20T06:42:15;24.50;40.50
31129;DHT22;17777;48.770;8.944;2023-07-20T06:44:41;24.50;40.40
31129;DHT22;17777;48.770;8.944;2023-07-20T06:47:07;24.60;40.40
31129;DHT22;17777;48.770;8.944;2023-07-20T06:49:33;24.60;40.40
31129;DHT22;17777;48.770;8.944;2023-07-20T06:51:58;24.70;40.40
31129;DHT22;17777;48.770;8.944;2023-07-20T06:54:24;24.80;40.30
31129;DHT22;17777;48.770;8.944;2023-07-20T06:56:50;24.80;40.20
31129;DHT22;17777;48.770;8.944;2023-07-20T06:59:16;24.90;40.10
31129;DHT22;17777;48.770;8.944;2023-07-20T07:01:42;25.00;40.10
31129;DHT22;17777;48.770;8.944;2023-07-20T07:04:08;25.10;40.10
31129;DHT22;17777;48.770;8.944;2023-07-20T07:06:33;25.20;40.00
31129;DHT22;17777;48.770;8.944;2023-07-20T07:09:00;25.20;39.90
31129;DHT22;17777;48.770;8.944;2023-07-20T07:11:26;25.30;40.60
31129;DHT22;17777;48.770;8.944;2023-07-20T07:13:52;25.40;39.90
31129;DHT22;17777;48.770;8.944;2023-07-20T07:16:18;25.50;39.90
31129;DHT22;17777;48.770;8.944;2023-07-20T07:18:46;25.50;39.80
31129;DHT22;17777;48.770;8.944;2023-07-20T07:21:12;25.60;39.80
31129;DHT22;17777;48.770;8.944;2023-07-20T07:23:39;25.70;40.10
31129;DHT22;17777;48.770;8.944;2023-07-20T07:26:05;25.80;39.80
31129;DHT22;17777;48.770;8.944;2023-07-20T07:28:30;25.90;39.70
31129;DHT22;17777;48.770;8.944;2023-07-20T07:30:57;25.90;39.60
31129;DHT22;17777;48.770;8.944;2023-07-20T07:33:23;26.00;39.50
31129;DHT22;17777;48.770;8.944;2023-07-20T07:35:52;26.10;39.40
31129;DHT22;17777;48.770;8.944;2023-07-20T07:38:19;26.10;39.30
31129;DHT22;17777;48.770;8.944;2023-07-20T07:40:45;26.20;39.30
31129;DHT22;17777;48.770;8.944;2023-07-20T07:43:11;26.30;39.20
31129;DHT22;17777;48.770;8.944;2023-07-20T07:45:40;26.30;39.10
31129;DHT22;17777;48.770;8.944;2023-07-20T07:48:06;26.40;39.00
31129;DHT22;17777;48.770;8.944;2023-07-20T07:50:33;26.50;39.00
31129;DHT22;17777;48.770;8.944;2023-07-20T07:52:59;26.50;38.80
31129;DHT22;17777;48.770;8.944;2023-07-20T07:55:25;26.60;38.70
31129;DHT22;17777;48.770;8.944;2023-07-20T07:57:54;26.60;38.50
31129;DHT22;17777;48.770;8.944;2023-07-20T08:00:20;26.70;38.40
31129;DHT22;17777;48.770;8.944;2023-07-20T08:02:46;26.70;38.40
31129;DHT22;17777;48.770;8.944;2023-07-20T08:05:13;26.80;38.40
31129;DHT22;17777;48.770;8.944;2023-07-20T08:07:39;26.80;38.40
31129;DHT22;17777;48.770;8.944;2023-07-20T08:10:06;26.90;38.40
31129;DHT22;17777;48.770;8.944;2023-07-20T08:12:32;26.90;38.20
31129;DHT22;17777;48.770;8.944;2023-07-20T08:14:58;27.00;38.20
31129;DHT22;17777;48.770;8.944;2023-07-20T08:17:24;27.00;38.20
31129;DHT22;17777;48.770;8.944;2023-07-20T08:19:50;27.10;37.90
31129;DHT22;17777;48.770;8.944;2023-07-20T08:22:15;27.10;37.70
31129;DHT22;17777;48.770;8.944;2023-07-20T08:24:43;27.10;37.60
31129;DHT22;17777;48.770;8.944;2023-07-20T08:27:09;27.20;37.40
31129;DHT22;17777;48.770;8.944;2023-07-20T08:29:36;27.20;37.40
31129;DHT22;17777;48.770;8.944;2023-07-20T08:32:02;27.20;37.30
31129;DHT22;17777;48.770;8.944;2023-07-20T08:34:29;27.30;37.20
31129;DHT22;17777;48.770;8.944;2023-07-20T08:36:56;27.30;37.80
31129;DHT22;17777;48.770;8.944;2023-07-20T08:39:23;27.30;37.00
31129;DHT22;17777;48.770;8.944;2023-07-20T08:41:50;27.40;37.70
31129;DHT22;17777;48.770;8.944;2023-07-20T08:44:17;27.40;37.00
31129;DHT22;17777;48.770;8.944;2023-07-20T08:46:44;27.40;37.00
31129;DHT22;17777;48.770;8.944;2023-07-20T08:49:11;27.50;36.80
31129;DHT22;17777;48.770;8.944;2023-07-20T08:51:37;27.50;36.80
31129;DHT22;17777;48.770;8.944;2023-07-20T08:54:03;27.50;36.70
31129;DHT22;17777;48.770;8.944;2023-07-20T08:56:31;27.60;36.60
31129;DHT22;17777;48.770;8.944;2023-07-20T08:58:59;27.60;36.40
31129;DHT22;17777;48.770;8.944;2023-07-20T09:01:27;27.70;36.30
31129;DHT22;17777;48.770;8.944;2023-07-20T09:03:54;27.70;36.10
31129;DHT22;17777;48.770;8.944;2023-07-20T09:06:20;27.70;36.00
31129;DHT22;17777;48.770;8.944;2023-07-20T09:08:46;27.80;36.00
31129;DHT22;17777;48.770;8.944;2023-07-20T09:11:12;27.80;35.90
31129;DHT22;17777;48.770;8.944;2023-07-20T09:13:39;27.80;35.80
31129;DHT22;17777;48.770;8.944;2023-07-20T09:16:05;27.80;35.60
31129;DHT22;17777;48.770;8.944;2023-07-20T09:18:32;27.90;35.70
31129;DHT22;17777;48.770;8.944;2023-07-20T09:21:03;27.90;35.60
31129;DHT22;17777;48.770;8.944;2023-07-20T09:23:36;27.90;35.20
31129;DHT22;17777;48.770;8.944;2023-07-20T09:26:12;27.90;35.00
31129;DHT22;17777;48.770;8.944;2023-07-20T09:28:57;27.90;34.80
31129;DHT22;17777;48.770;8.944;2023-07-20T09:31:23;28.00;34.80
31129;DHT22;17777;48.770;8.944;2023-07-20T09:33:50;28.00;35.10
31129;DHT22;17777;48.770;8.944;2023-07-20T09:36:18;28.10;35.00
31129;DHT22;17777;48.770;8.944;2023-07-20T09:38:43;28.10;34.90
31129;DHT22;17777;48.770;8.944;2023-07-20T09:41:15;28.10;34.90
31129;DHT22;17777;48.770;8.944;2023-07-20T09:43:46;28.20;34.30
31129;DHT22;17777;48.770;8.944;2023-07-20T09:46:12;28.20;34.60
31129;DHT22;17777;48.770;8.944;2023-07-20T09:48:39;28.30;34.50
31129;DHT22;17777;48.770;8.944;2023-07-20T09:51:05;28.30;34.30
31129;DHT22;17777;48.770;8.944;2023-07-20T09:53:33;28.30;34.10
31129;DHT22;17777;48.770;8.944;2023-07-20T09:56:00;28.40;34.10
31129;DHT22;17777;48.770;8.944;2023-07-20T09:58:26;28.40;34.00
31129;DHT22;17777;48.770;8.944;2023-07-20T10:00:54;28.40;33.80
31129;DHT22;17777;48.770;8.944;2023-07-20T10:03:29;28.50;33.70
31129;DHT22;17777;48.770;8.944;2023-07-20T10:06:09;28.50;33.40
31129;DHT22;17777;48.770;8.944;2023-07-20T10:08:39;28.50;33.00
31129;DHT22;17777;48.770;8.944;2023-07-20T10:11:07;28.50;33.40
31129;DHT22;17777;48.770;8.944;2023-07-20T10:13:38;28.60;34.00
31129;DHT22;17777;48.770;8.944;2023-07-20T10:16:11;28.60;32.90
31129;DHT22;17777;48.770;8.944;2023-07-20T10:19:11;28.60;32.60
31129;DHT22;17777;48.770;8.944;2023-07-20T10:22:14;28.60;32.30
31129;DHT22;17777;48.770;8.944;2023-07-20T10:24:44;28.70;32.20
31129;DHT22;17777;48.770;8.944;2023-07-20T10:27:10;28.80;32.70
31129;DHT22;17777;48.770;8.944;2023-07-20T10:29:37;28.80;32.60
31129;DHT22;17777;48.770;8.944;2023-07-20T10:32:04;28.80;32.40
31129;DHT22;17777;48.770;8.944;2023-07-20T10:34:30;28.80;32.20
31129;DHT22;17777;48.770;8.944;2023-07-20T10:36:56;28.80;32.00
31129;DHT22;17777;48.770;8.944;2023-07-20T10:39:41;28.90;32.00
31129;DHT22;17777;48.770;8.944;2023-07-20T10:42:07;28.90;31.80
31129;DHT22;17777;48.770;8.944;2023-07-20T10:44:37;28.90;31.70
31129;DHT22;17777;48.770;8.944;2023-07-20T10:47:09;29.00;31.50
31129;DHT22;17777;48.770;8.944;2023-07-20T10:49:59;29.00;31.40
31129;DHT22;17777;48.770;8.944;2023-07-20T10:52:36;29.00;31.10
31129;DHT22;17777;48.770;8.944;2023-07-20T10:55:15;29.10;31.00
31129;DHT22;17777;48.770;8.944;2023-07-20T10:57:42;29.10;30.80
31129;DHT22;17777;48.770;8.944;2023-07-20T11:00:09;29.20;31.50
31129;DHT22;17777;48.770;8.944;2023-07-20T11:02:48;29.10;31.30
31129;DHT22;17777;48.770;8.944;2023-07-20T11:05:34;29.20;30.70
31129;DHT22;17777;48.770;8.944;2023-07-20T11:08:04;29.20;30.50
31129;DHT22;17777;48.770;8.944;2023-07-20T11:10:30;29.30;30.90
31129;DHT22;17777;48.770;8.944;2023-07-20T11:18:27;29.40;30.10
31129;DHT22;17777;48.770;8.944;2023-07-20T11:20:53;29.50;30.20
31129;DHT22;17777;48.770;8.944;2023-07-20T11:23:22;29.50;30.40
31129;DHT22;17777;48.770;8.944;2023-07-20T11:25:49;29.50;30.10
31129;DHT22;17777;48.770;8.944;2023-07-20T11:28:15;29.60;30.30
31129;DHT22;17777;48.770;8.944;2023-07-20T11:30:41;29.60;30.20
31129;DHT22;17777;48.770;8.944;2023-07-20T11:33:10;29.60;30.10
31129;DHT22;17777;48.770;8.944;2023-07-20T11:35:42;29.60;30.00
31129;DHT22;17777;48.770;8.944;2023-07-20T11:38:08;29.70;29.50
31129;DHT22;17777;48.770;8.944;2023-07-20T11:40:34;29.70;29.90
31129;DHT22;17777;48.770;8.944;2023-07-20T11:43:00;29.70;29.90
31129;DHT22;17777;48.770;8.944;2023-07-20T11:45:26;29.80;29.90
31129;DHT22;17777;48.770;8.944;2023-07-20T11:47:53;29.80;29.90
31129;DHT22;17777;48.770;8.944;2023-07-20T11:50:19;29.90;29.80
31129;DHT22;17777;48.770;8.944;2023-07-20T11:52:44;29.80;29.70
31129;DHT22;17777;48.770;8.944;2023-07-20T11:55:11;29.90;29.70
31129;DHT22;17777;48.770;8.944;2023-07-20T11:57:37;29.90;29.50
31129;DHT22;17777;48.770;8.944;2023-07-20T12:00:05;29.90;29.40
31129;DHT22;17777;48.770;8.944;2023-07-20T12:02:37;30.00;29.40
31129;DHT22;17777;48.770;8.944;2023-07-20T12:05:07;30.00;29.40
31129;DHT22;17777;48.770;8.944;2023-07-20T12:07:36;30.00;29.30
31129;DHT22;17777;48.770;8.944;2023-07-20T12:12:38;30.00;29.10
31129;DHT22;17777;48.770;8.944;2023-07-20T12:17:50;30.10;28.90
31129;DHT22;17777;48.770;8.944;2023-07-20T12:20:30;30.10;28.90
31129;DHT22;17777;48.770;8.944;2023-07-20T12:23:03;30.20;28.70
31129;DHT22;17777;48.770;8.944;2023-07-20T12:28:09;30.30;29.00
31129;DHT22;17777;48.770;8.944;2023-07-20T12:30:37;30.20;28.90
31129;DHT22;17777;48.770;8.944;2023-07-20T12:33:03;30.30;28.90
31129;DHT22;17777;48.770;8.944;2023-07-20T12:35:30;30.30;28.80
31129;DHT22;17777;48.770;8.944;2023-07-20T12:37:57;30.30;28.80
31129;DHT22;17777;48.770;8.944;2023-07-20T12:40:23;30.40;28.60
31129;DHT22;17777;48.770;8.944;2023-07-20T12:42:50;30.40;28.50
31129;DHT22;17777;48.770;8.944;2023-07-20T12:45:15;30.40;28.40
31129;DHT22;17777;48.770;8.944;2023-07-20T12:47:41;30.50;28.30
31129;DHT22;17777;48.770;8.944;2023-07-20T12:50:10;30.50;28.30
31129;DHT22;17777;48.770;8.944;2023-07-20T12:52:37;30.40;28.10
31129;DHT22;17777;48.770;8.944;2023-07-20T12:55:06;30.50;28.10
31129;DHT22;17777;48.770;8.944;2023-07-20T12:57:34;30.50;28.00
31129;DHT22;17777;48.770;8.944;2023-07-20T13:00:02;30.50;27.90
31129;DHT22;17777;48.770;8.944;2023-07-20T13:02:30;30.50;27.90
31129;DHT22;17777;48.770;8.944;2023-07-20T13:04:57;30.50;27.90
31129;DHT22;17777;48.770;8.944;2023-07-20T13:07:37;30.50;27.90
31129;DHT22;17777;48.770;8.944;2023-07-20T13:10:05;30.50;27.50
31129;DHT22;17777;48.770;8.944;2023-07-20T13:12:32;30.60;27.90
31129;DHT22;17777;48.770;8.944;2023-07-20T13:15:00;30.60;27.80
31129;DHT22;17777;48.770;8.944;2023-07-20T13:17:35;30.60;27.80
31129;DHT22;17777;48.770;8.944;2023-07-20T13:20:03;30.60;27.80
31129;DHT22;17777;48.770;8.944;2023-07-20T13:22:33;30.60;27.60
31129;DHT22;17777;48.770;8.944;2023-07-20T13:24:59;30.70;27.60
31129;DHT22;17777;48.770;8.944;2023-07-20T13:27:25;30.60;27.60
31129;DHT22;17777;48.770;8.944;2023-07-20T13:29:51;30.70;27.50
31129;DHT22;17777;48.770;8.944;2023-07-20T13:32:18;30.70;27.40
31129;DHT22;17777;48.770;8.944;2023-07-20T13:34:44;30.70;27.40
31129;DHT22;17777;48.770;8.944;2023-07-20T13:37:11;30.70;27.40
31129;DHT22;17777;48.770;8.944;2023-07-20T13:39:37;30.70;27.40
31129;DHT22;17777;48.770;8.944;2023-07-20T13:42:07;30.70;27.30
31129;DHT22;17777;48.770;8.944;2023-07-20T13:44:36;30.80;27.30
31129;DHT22;17777;48.770;8.944;2023-07-20T13:47:03;30.80;27.40
31129;DHT22;17777;48.770;8.944;2023-07-20T13:49:32;30.80;27.20
31129;DHT22;17777;48.770;8.944;2023-07-20T13:51:58;30.80;27.20
31129;DHT22;17777;48.770;8.944;2023-07-20T13:54:25;30.80;27.10
31129;DHT22;17777;48.770;8.944;2023-07-20T13:56:51;30.90;27.20
31129;DHT22;17777;48.770;8.944;2023-07-20T13:59:17;30.80;27.10
31129;DHT22;17777;48.770;8.944;2023-07-20T14:01:43;30.90;27.00
31129;DHT22;17777;48.770;8.944;2023-07-20T14:04:09;30.90;27.00
31129;DHT22;17777;48.770;8.944;2023-07-20T14:06:35;31.00;27.10
31129;DHT22;17777;48.770;8.944;2023-07-20T14:09:02;31.00;27.10
31129;DHT22;17777;48.770;8.944;2023-07-20T14:11:28;30.90;26.90
31129;DHT22;17777;48.770;8.944;2023-07-20T14:13:54;31.00;27.00
31129;DHT22;17777;48.770;8.944;2023-07-20T14:16:21;31.00;27.00
31129;DHT22;17777;48.770;8.944;2023-07-20T14:18:47;31.00;27.00
31129;DHT22;17777;48.770;8.944;2023-07-20T14:21:14;31.00;26.90
31129;DHT22;17777;48.770;8.944;2023-07-20T14:23:48;31.00;26.90
31129;DHT22;17777;48.770;8.944;2023-07-20T14:26:16;31.10;26.80
31129;DHT22;17777;48.770;8.944;2023-07-20T14:28:42;31.10;26.90
31129;DHT22;17777;48.770;8.944;2023-07-20T14:31:08;31.10;27.00
31129;DHT22;17777;48.770;8.944;2023-07-20T14:33:33;31.10;26.90
31129;DHT22;17777;48.770;8.944;2023-07-20T14:35:59;31.10;26.90
31129;DHT22;17777;48.770;8.944;2023-07-20T14:38:27;31.10;26.80
31129;DHT22;17777;48.770;8.944;2023-07-20T14:40:53;31.20;26.80
31129;DHT22;17777;48.770;8.944;2023-07-20T14:43:20;31.20;26.80
31129;DHT22;17777;48.770;8.944;2023-07-20T14:45:46;31.20;26.70
31129;DHT22;17777;48.770;8.944;2023-07-20T14:48:12;31.20;26.60
31129;DHT22;17777;48.770;8.944;2023-07-20T14:50:38;31.30;26.70
31129;DHT22;17777;48.770;8.944;2023-07-20T14:53:04;31.20;26.60
31129;DHT22;17777;48.770;8.944;2023-07-20T14:55:30;31.30;26.50
31129;DHT22;17777;48.770;8.944;2023-07-20T14:57:55;31.30;26.50
31129;DHT22;17777;48.770;8.944;2023-07-20T15:00:21;31.20;26.40
31129;DHT22;17777;48.770;8.944;2023-07-20T15:02:47;31.20;26.30
31129;DHT22;17777;48.770;8.944;2023-07-20T15:05:20;31.30;26.90
31129;DHT22;17777;48.770;8.944;2023-07-20T15:07:47;31.20;25.90
31129;DHT22;17777;48.770;8.944;2023-07-20T15:10:13;31.20;26.30
31129;DHT22;17777;48.770;8.944;2023-07-20T15:12:39;31.20;26.80
31129;DHT22;17777;48.770;8.944;2023-07-20T15:15:13;31.20;26.30
31129;DHT22;17777;48.770;8.944;2023-07-20T15:17:41;31.10;26.10
31129;DHT22;17777;48.770;8.944;2023-07-20T15:20:10;31.20;26.30
31129;DHT22;17777;48.770;8.944;2023-07-20T15:22:38;31.10;26.20
31129;DHT22;17777;48.770;8.944;2023-07-20T15:25:05;31.20;26.30
31129;DHT22;17777;48.770;8.944;2023-07-20T15:27:32;31.10;26.20
31129;DHT22;17777;48.770;8.944;2023-07-20T15:29:58;31.20;26.10
31129;DHT22;17777;48.770;8.944;2023-07-20T15:32:24;31.10;26.10
31129;DHT22;17777;48.770;8.944;2023-07-20T15:34:50;31.10;26.00
31129;DHT22;17777;48.770;8.944;2023-07-20T15:37:16;31.10;26.00
31129;DHT22;17777;48.770;8.944;2023-07-20T15:39:41;31.10;25.90
31129;DHT22;17777;48.770;8.944;2023-07-20T15:42:07;31.10;26.00
31129;DHT22;17777;48.770;8.944;2023-07-20T15:44:34;31.00;25.80
31129;DHT22;17777;48.770;8.944;2023-07-20T15:47:00;31.00;25.90
31129;DHT22;17777;48.770;8.944;2023-07-20T15:49:27;31.00;25.90
31129;DHT22;17777;48.770;8.944;2023-07-20T15:51:54;31.00;26.00